Time;durP1;ratioP1;P1;durP2;ratioP2;P2;SDS_P1;SDS_P2;PMS_P1;PMS_P2;Temp;Humidity;BMP_temperature;BMP_pressure;BME280_temperature;BME280_humidity;BME280_pressure;Samples;Min_cycle;Max_cycle;Signal;HPM_P1;HPM_P2
2022/11/03 00:01:59;;;;;;;21.17;3.83;;;;;;;10.49;71.46;101226.44;5076442;28;20436;-65
2022/11/03 00:04:25;;;;;;;17.83;3.28;;;;;;;10.55;71.40;101233.00;5075036;28;20045;-64
2022/11/03 00:06:54;;;;;;;20.38;3.85;;;;;;;10.62;71.04;101230.63;5075914;28;20045;-64
2022/11/03 00:09:22;;;;;;;17.67;3.85;;;;;;;10.72;70.75;101224.31;5076232;28;20559;-65
2022/11/03 00:11:50;;;;;;;19.05;3.42;;;;;;;10.70;71.17;101220.16;5076282;28;20048;-65
2022/11/03 00:14:18;;;;;;;17.27;3.28;;;;;;;10.69;71.43;101213.97;5076598;28;20051;-64
2022/11/03 00:16:44;;;;;;;17.48;3.63;;;;;;;10.71;70.96;101220.00;5075987;28;20440;-65
2022/11/03 00:19:14;;;;;;;19.20;3.92;;;;;;;10.71;71.34;101213.84;5076208;28;20486;-64
2022/11/03 00:21:42;;;;;;;22.00;4.13;;;;;;;10.74;71.17;101203.78;5075924;28;20467;-65
2022/11/03 00:24:09;;;;;;;21.13;3.40;;;;;;;10.67;71.53;101209.81;5076277;28;20547;-65
2022/11/03 00:26:36;;;;;;;19.10;3.70;;;;;;;10.65;72.30;101209.13;5075719;28;20052;-65
2022/11/03 00:29:09;;;;;;;20.15;3.85;;;;;;;10.63;72.08;101214.56;5076106;28;20055;-65
2022/11/03 00:31:37;;;;;;;23.50;4.25;;;;;;;10.58;72.54;101203.53;5075941;28;20455;-65
2022/11/03 00:34:06;;;;;;;18.17;3.90;;;;;;;10.69;71.82;101207.84;5075632;28;20087;-64
2022/11/03 00:36:36;;;;;;;18.20;3.53;;;;;;;10.57;72.37;101193.94;5076167;28;20135;-65
2022/11/03 00:39:04;;;;;;;19.35;3.80;;;;;;;10.60;72.56;101193.63;5053627;28;20110;-65
2022/11/03 00:41:32;;;;;;;23.92;3.88;;;;;;;10.66;72.66;101186.91;5061392;28;20562;-64
2022/11/03 00:43:59;;;;;;;18.10;3.90;;;;;;;10.61;72.92;101187.34;5076027;28;20482;-65
2022/11/03 00:46:25;;;;;;;17.10;3.40;;;;;;;10.55;73.32;101190.56;5076675;28;20045;-65
2022/11/03 00:48:52;;;;;;;16.95;3.88;;;;;;;10.61;73.47;101184.69;5076018;28;20044;-64
2022/11/03 00:51:25;;;;;;;17.58;4.03;;;;;;;10.69;73.11;101186.63;5075066;28;20048;-64
2022/11/03 00:53:56;;;;;;;25.25;3.97;;;;;;;10.69;73.02;101182.13;5075979;28;20047;-65
2022/11/03 00:56:28;;;;;;;18.95;4.28;;;;;;;10.61;73.41;101189.16;5075941;28;20398;-64
2022/11/03 00:58:57;;;;;;;18.38;3.88;;;;;;;10.56;73.68;101178.97;5073838;28;20045;-64
2022/11/03 01:01:26;;;;;;;17.90;3.90;;;;;;;10.69;73.54;101179.50;5075365;28;20478;-64
2022/11/03 01:06:48;;;;;;;23.35;3.95;;;;;;;10.64;74.04;101179.09;5074701;28;20414;-64
2022/11/03 01:09:37;;;;;;;17.67;4.53;;;;;;;10.60;74.22;101172.41;5075075;28;20033;-64
2022/11/03 01:12:10;;;;;;;21.08;4.00;;;;;;;10.62;74.26;101170.44;5078242;28;20415;-65
2022/11/03 01:14:42;;;;;;;15.68;3.72;;;;;;;10.65;74.28;101174.63;5095443;28;20048;-65
2022/11/03 01:17:12;;;;;;;16.10;3.75;;;;;;;10.60;74.14;101174.22;5095180;28;20081;-65
2022/11/03 01:19:38;;;;;;;18.20;3.95;;;;;;;10.60;74.85;101171.56;5095100;28;20036;-64
2022/11/03 01:22:05;;;;;;;22.52;4.72;;;;;;;10.53;74.87;101169.50;5085394;28;20047;-64
2022/11/03 01:24:34;;;;;;;19.50;4.07;;;;;;;10.55;74.93;101161.38;5075082;28;20048;-64
2022/11/03 01:27:01;;;;;;;23.30;4.47;;;;;;;10.49;75.14;101154.81;5074807;28;20457;-64
2022/11/03 01:29:27;;;;;;;16.73;4.13;;;;;;;10.45;75.43;101144.66;5074687;28;20483;-64
2022/11/03 01:31:54;;;;;;;22.38;4.10;;;;;;;10.38;76.11;101136.44;5075025;28;20044;-64
2022/11/03 01:34:21;;;;;;;18.02;4.53;;;;;;;10.41;75.94;101148.59;5074882;28;20040;-64
2022/11/03 01:36:48;;;;;;;15.85;3.95;;;;;;;10.42;76.24;101143.13;5074884;28;20055;-64
2022/11/03 01:39:17;;;;;;;16.42;4.00;;;;;;;10.46;76.48;101138.34;5043999;28;20317;-65
2022/11/03 01:41:46;;;;;;;19.10;4.10;;;;;;;10.47;76.04;101137.41;5071413;28;20055;-64
2022/11/03 01:46:58;;;;;;;27.05;4.95;;;;;;;10.40;76.70;101123.88;5090342;28;20887;-63
2022/11/03 01:49:35;;;;;;;17.17;4.18;;;;;;;10.44;76.65;101122.63;5055749;28;20052;-63
2022/11/03 01:52:10;;;;;;;19.45;4.15;;;;;;;10.49;76.48;101116.88;5072343;28;20119;-62
2022/11/03 01:54:38;;;;;;;16.65;3.65;;;;;;;10.49;76.70;101109.72;5090692;28;20048;-63
2022/11/03 01:57:10;;;;;;;22.65;3.85;;;;;;;10.43;76.88;101106.84;5072249;28;20094;-63
2022/11/03 01:59:38;;;;;;;14.82;3.80;;;;;;;10.42;77.18;101100.69;5090227;28;20045;-63
2022/11/03 02:02:05;;;;;;;22.40;3.95;;;;;;;10.42;77.13;101103.34;5090119;28;20106;-63
2022/11/03 02:04:33;;;;;;;21.27;4.10;;;;;;;10.33;77.70;101093.59;5077031;28;20048;-62
2022/11/03 02:07:10;;;;;;;18.98;3.90;;;;;;;10.40;77.27;101088.56;5055520;28;20049;-63
2022/11/03 02:09:37;;;;;;;17.92;3.95;;;;;;;10.43;77.53;101091.75;5089956;28;20469;-63
2022/11/03 02:12:06;;;;;;;21.10;4.35;;;;;;;10.47;77.49;101087.81;5090002;28;20071;-63
2022/11/03 02:14:37;;;;;;;18.42;3.78;;;;;;;10.45;77.42;101078.34;5090000;28;20093;-63
2022/11/03 02:17:08;;;;;;;18.98;3.97;;;;;;;10.35;78.13;101078.38;5072351;28;20117;-63
2022/11/03 02:19:48;;;;;;;19.60;4.40;;;;;;;10.35;78.16;101078.38;5090153;28;20040;-63
2022/11/03 02:22:42;;;;;;;26.15;4.40;;;;;;;10.33;78.39;101080.34;5089532;28;20044;-63
2022/11/03 02:25:39;;;;;;;20.40;4.68;;;;;;;10.39;78.49;101074.47;5088711;28;20048;-63
2022/11/03 02:28:06;;;;;;;17.77;4.25;;;;;;;10.39;78.50;101063.88;5089552;28;20044;-63
2022/11/03 02:30:41;;;;;;;21.85;4.35;;;;;;;10.43;78.44;101059.09;5090227;28;20044;-63
2022/11/03 02:33:19;;;;;;;21.20;4.47;;;;;;;10.45;78.53;101054.47;5089539;28;20068;-63
2022/11/03 02:35:55;;;;;;;19.23;4.22;;;;;;;10.38;78.94;101054.22;5090093;28;20117;-63
2022/11/03 02:38:27;;;;;;;18.13;4.20;;;;;;;10.34;79.02;101044.91;5071436;28;20044;-63
2022/11/03 02:40:59;;;;;;;16.10;4.15;;;;;;;10.45;79.15;101042.06;5051994;28;20044;-63
2022/11/03 02:43:28;;;;;;;25.75;4.47;;;;;;;10.42;79.11;101039.69;5089275;28;20044;-63
2022/11/03 02:45:55;;;;;;;20.77;4.28;;;;;;;10.44;79.35;101026.28;5089659;28;20048;-64
2022/11/03 02:48:22;;;;;;;16.80;4.03;;;;;;;10.40;79.21;101024.91;5089943;28;20052;-63
2022/11/03 02:50:48;;;;;;;22.08;4.45;;;;;;;10.40;79.54;101023.09;5089752;28;20063;-63
2022/11/03 02:53:16;;;;;;;24.90;4.65;;;;;;;10.48;79.27;101009.94;5089456;28;20072;-63
2022/11/03 02:55:52;;;;;;;16.90;3.95;;;;;;;10.51;79.34;101019.41;5071580;28;20615;-63
2022/11/03 02:58:48;;;;;;;18.52;4.13;;;;;;;10.45;79.60;101007.56;5075068;28;20047;-63
2022/11/03 03:01:47;;;;;;;19.92;4.78;;;;;;;10.49;79.73;101003.63;5075475;28;20044;-63
2022/11/03 03:04:29;;;;;;;19.08;4.47;;;;;;;10.52;79.59;101005.19;5075357;28;20041;-63
2022/11/03 03:07:01;;;;;;;28.23;4.50;;;;;;;10.48;80.18;101006.47;5075163;28;20059;-63
2022/11/03 03:09:34;;;;;;;19.90;4.15;;;;;;;10.42;80.48;101001.72;5075382;28;20048;-63
2022/11/03 03:12:04;;;;;;;22.63;4.43;;;;;;;10.47;80.66;100994.16;5055843;28;20044;-63
2022/11/03 03:14:36;;;;;;;21.77;4.18;;;;;;;10.45;80.72;100996.97;5073973;28;20135;-64
2022/11/03 03:17:11;;;;;;;21.58;4.30;;;;;;;10.54;80.13;100989.94;5057392;28;20528;-63
2022/11/03 03:20:00;;;;;;;21.77;4.43;;;;;;;10.53;80.63;100981.16;5057230;28;20041;-63
2022/11/03 03:22:34;;;;;;;23.35;4.07;;;;;;;10.42;80.87;100986.63;5075313;28;20072;-63
2022/11/03 03:25:12;;;;;;;17.48;4.05;;;;;;;10.46;80.98;100972.13;5075236;28;20049;-63
2022/11/03 03:27:45;;;;;;;23.80;4.72;;;;;;;10.40;81.48;100975.34;5075472;28;20044;-63
2022/11/03 03:30:13;;;;;;;21.05;4.03;;;;;;;10.44;81.35;100971.44;5057281;28;20080;-64
2022/11/03 03:32:45;;;;;;;22.95;4.22;;;;;;;10.41;81.67;100978.84;5057729;28;20090;-63
2022/11/03 03:35:16;;;;;;;;;;;;;;;10.46;81.67;100971.25;5075256;28;20052;-63
2022/11/03 03:37:47;;;;;;;20.13;3.90;;;;;;;10.50;81.67;100967.34;5075057;28;20003;-63
2022/11/03 03:40:19;;;;;;;19.50;3.83;;;;;;;10.55;81.50;100963.28;5035464;28;20041;-63
2022/11/03 03:42:48;;;;;;;24.17;4.25;;;;;;;10.49;81.79;100963.03;5057559;28;20044;-62
2022/11/03 03:45:16;;;;;;;18.75;3.83;;;;;;;10.57;81.73;100963.13;5074289;28;20448;-63
2022/11/03 03:47:43;;;;;;;21.88;4.60;;;;;;;10.62;81.57;100952.06;5057082;28;20044;-63
2022/11/03 03:50:10;;;;;;;15.77;3.72;;;;;;;10.64;81.53;100950.94;5040341;28;20070;-63
2022/11/03 03:52:37;;;;;;;19.83;3.95;;;;;;;10.64;81.50;100948.28;5073373;28;20044;-63
2022/11/03 03:55:11;;;;;;;21.15;3.85;;;;;;;10.68;80.90;100943.53;5040579;28;20102;-63
2022/11/03 03:57:38;;;;;;;24.33;4.10;;;;;;;10.69;81.36;100942.53;5074154;28;20093;-63
2022/11/03 04:00:05;;;;;;;24.50;3.67;;;;;;;10.65;81.53;100947.28;5074510;28;20057;-63
2022/11/03 04:02:48;;;;;;;26.80;4.47;;;;;;;10.73;81.47;100938.56;5110660;27;20387;-63
2022/11/03 04:05:15;;;;;;;20.33;3.70;;;;;;;10.75;81.54;100932.16;5110253;28;20040;-63
2022/11/03 04:07:49;;;;;;;21.00;4.07;;;;;;;10.66;81.66;100926.88;5110689;28;20044;-63
2022/11/03 04:10:19;;;;;;;20.00;4.10;;;;;;;10.65;81.81;100931.38;5109343;28;20063;-63
2022/11/03 04:23:59;;;;;;;18.80;3.90;;;;;;;10.70;81.76;100925.63;5109288;28;20063;-63
2022/11/03 04:26:27;;;;;;;20.77;4.18;;;;;;;10.71;82.04;100925.47;5110645;28;20105;-62
2022/11/03 04:28:55;;;;;;;22.73;4.20;;;;;;;10.73;82.00;100920.00;5110242;28;20082;-63
2022/11/03 04:31:21;;;;;;;22.15;4.40;;;;;;;10.72;81.92;100918.34;5110391;28;20032;-63
2022/11/03 04:33:48;;;;;;;19.77;4.05;;;;;;;10.72;82.04;100921.81;5110101;28;20036;-64
2022/11/03 04:36:19;;;;;;;19.35;4.13;;;;;;;10.62;82.35;100917.56;5109115;28;20128;-63
2022/11/03 04:38:46;;;;;;;25.90;4.15;;;;;;;10.64;82.58;100913.81;5104476;28;20052;-64
2022/11/03 04:41:21;;;;;;;20.02;4.10;;;;;;;10.65;82.43;100909.31;5061910;28;20036;-63
2022/11/03 04:43:49;;;;;;;21.55;5.00;;;;;;;10.69;82.13;100910.69;5108771;28;20489;-63
2022/11/03 04:46:28;;;;;;;24.88;5.82;;;;;;;10.67;82.24;100900.22;5110461;28;20044;-63
2022/11/03 04:49:00;;;;;;;22.10;3.97;;;;;;;10.64;82.43;100899.69;5108795;28;20520;-64
2022/11/03 04:51:32;;;;;;;25.05;4.30;;;;;;;10.70;82.53;100894.63;5110196;28;20495;-64
2022/11/03 04:54:13;;;;;;;20.85;4.65;;;;;;;10.72;82.27;100897.13;5108736;28;20126;-63
2022/11/03 04:56:40;;;;;;;23.25;4.82;;;;;;;10.69;82.46;100894.75;5110332;28;20059;-63
2022/11/03 04:59:11;;;;;;;23.75;4.35;;;;;;;10.76;82.44;100893.16;5108442;28;20039;-64
2022/11/03 05:01:38;;;;;;;13.50;4.10;;;;;;;10.68;82.70;100893.94;5108394;28;20086;-63
2022/11/03 05:04:15;;;;;;;26.42;4.38;;;;;;;10.65;82.76;100886.28;5109318;28;20059;-63
2022/11/03 05:06:50;;;;;;;17.02;4.53;;;;;;;10.55;83.46;100883.69;5109438;28;20048;-64
2022/11/03 05:09:23;;;;;;;23.20;4.97;;;;;;;10.57;83.22;100876.41;5108169;28;20516;-63
2022/11/03 05:11:50;;;;;;;21.17;4.50;;;;;;;10.62;83.48;100870.66;5109655;28;20494;-64
2022/11/03 05:14:32;;;;;;;22.02;4.18;;;;;;;10.63;83.34;100868.84;5092499;28;20044;-64
2022/11/03 05:17:01;;;;;;;28.30;4.68;;;;;;;10.59;83.56;100862.16;5095363;28;20054;-64
2022/11/03 05:19:35;;;;;;;24.13;4.38;;;;;;;10.67;83.65;100857.75;5094173;28;20378;-64
2022/11/03 05:22:03;;;;;;;19.90;4.35;;;;;;;10.61;83.63;100849.59;5095676;28;20072;-63
2022/11/03 05:24:31;;;;;;;20.75;4.57;;;;;;;10.60;83.62;100850.56;5094389;28;20081;-64
2022/11/03 05:26:59;;;;;;;17.88;3.88;;;;;;;10.67;83.43;100847.16;5077858;28;20508;-64
2022/11/03 05:29:33;;;;;;;20.80;4.32;;;;;;;10.75;83.22;100841.94;5077663;28;20109;-64
2022/11/03 05:32:00;;;;;;;21.83;4.82;;;;;;;10.65;83.55;100830.56;5096014;28;20127;-63
2022/11/03 05:34:46;;;;;;;22.80;4.68;;;;;;;10.60;83.59;100837.31;5095296;28;20547;-64
2022/11/03 05:37:30;;;;;;;18.08;4.15;;;;;;;10.66;83.80;100842.00;5094383;28;20048;-63
2022/11/03 05:40:03;;;;;;;22.33;4.65;;;;;;;10.70;83.30;100838.91;5058842;28;20129;-63
2022/11/03 05:42:35;;;;;;;21.02;4.90;;;;;;;10.69;83.27;100818.66;5095470;28;20039;-63
2022/11/03 05:45:14;;;;;;;28.48;5.03;;;;;;;10.76;83.01;100821.53;5094382;28;20056;-63
2022/11/03 05:47:41;;;;;;;25.55;4.60;;;;;;;10.71;82.54;100824.66;5094223;28;20072;-64
2022/11/03 05:50:27;;;;;;;19.38;3.80;;;;;;;10.67;83.16;100810.00;5093963;28;20044;-64
2022/11/03 05:53:08;;;;;;;22.63;4.90;;;;;;;10.70;82.96;100817.66;5094824;28;20044;-64
2022/11/03 05:55:36;;;;;;;22.02;4.55;;;;;;;10.67;83.05;100815.31;5095463;28;20253;-63
2022/11/03 05:58:18;;;;;;;29.20;4.57;;;;;;;10.64;83.71;100815.63;5094776;28;20048;-64
2022/11/03 06:00:45;;;;;;;23.52;4.50;;;;;;;10.60;83.53;100805.47;5094975;28;20044;-64
2022/11/03 06:03:18;;;;;;;22.50;4.35;;;;;;;10.74;83.27;100811.06;5093668;28;20089;-64
2022/11/03 06:05:45;;;;;;;23.77;4.53;;;;;;;10.69;83.17;100797.41;5093454;28;20044;-64
2022/11/03 06:08:18;;;;;;;20.95;4.03;;;;;;;10.73;83.21;100800.59;5095175;28;20290;-65
2022/11/03 06:10:50;;;;;;;19.33;3.90;;;;;;;10.67;83.68;100796.75;5094875;28;20052;-64
2022/11/03 06:13:25;;;;;;;17.58;3.78;;;;;;;10.78;82.93;100795.66;5094912;28;20032;-63
2022/11/03 06:15:58;;;;;;;24.17;4.32;;;;;;;10.74;83.18;100787.19;5093340;28;20052;-61
2022/11/03 06:18:30;;;;;;;17.65;3.90;;;;;;;10.79;83.27;100785.88;5094721;28;20040;-61
2022/11/03 06:21:04;;;;;;;17.30;4.63;;;;;;;10.79;83.01;100794.69;5094791;28;20071;-61
2022/11/03 06:23:33;;;;;;;23.80;4.03;;;;;;;10.79;83.17;100789.38;5094934;28;20079;-61
2022/11/03 06:26:02;;;;;;;28.88;4.75;;;;;;;10.73;83.00;100779.38;5093530;28;20040;-61
2022/11/03 06:28:33;;;;;;;23.17;4.32;;;;;;;10.80;83.49;100779.59;5093210;28;20050;-61
2022/11/03 06:31:00;;;;;;;;;;;;;;;10.75;83.58;100777.41;5093665;28;20598;-61
2022/11/03 06:33:32;;;;;;;23.58;4.43;;;;;;;10.81;83.53;100781.28;5093304;28;19970;-61
2022/11/03 06:36:05;;;;;;;18.90;4.30;;;;;;;10.84;82.61;100783.59;5092980;28;20144;-61
2022/11/03 06:38:34;;;;;;;16.58;4.43;;;;;;;10.79;83.09;100777.91;5094099;28;20054;-62
2022/11/03 06:41:01;;;;;;;20.58;4.25;;;;;;;10.83;83.02;100781.94;5056424;28;20085;-62
2022/11/03 06:43:39;;;;;;;17.38;4.03;;;;;;;10.82;83.00;100769.66;5094060;28;20135;-62
2022/11/03 06:46:19;;;;;;;23.35;4.10;;;;;;;10.95;82.31;100756.81;5092866;28;20048;-62
2022/11/03 06:48:46;;;;;;;19.52;3.83;;;;;;;10.90;82.53;100751.16;5093496;28;20032;-62
2022/11/03 06:51:18;;;;;;;17.95;4.72;;;;;;;10.90;82.76;100749.31;5093820;28;20080;-62
2022/11/03 06:53:46;;;;;;;23.90;4.95;;;;;;;10.98;82.67;100750.38;5093552;28;20143;-62
2022/11/03 06:56:20;;;;;;;19.73;4.65;;;;;;;10.99;83.08;100744.91;5059526;28;20121;-62
2022/11/03 06:58:48;;;;;;;16.50;4.25;;;;;;;10.93;82.96;100734.91;5092270;28;20114;-62
2022/11/03 07:01:20;;;;;;;24.35;4.78;;;;;;;10.98;83.05;100740.56;5091659;28;20101;-62
2022/11/03 07:03:49;;;;;;;30.55;5.03;;;;;;;10.91;83.23;100729.78;5093988;28;20071;-61
2022/11/03 07:06:23;;;;;;;18.08;4.88;;;;;;;10.85;83.48;100729.56;5091620;28;20406;-62
2022/11/03 07:08:53;;;;;;;25.30;5.00;;;;;;;10.92;83.17;100719.97;5085222;28;20371;-62
2022/11/03 07:11:23;;;;;;;20.70;4.93;;;;;;;10.87;83.29;100722.25;5093762;28;20085;-62
2022/11/03 07:13:54;;;;;;;23.17;4.65;;;;;;;11.00;82.71;100732.47;5091727;28;20039;-62
2022/11/03 07:16:41;;;;;;;21.50;4.50;;;;;;;11.02;82.60;100728.66;5092385;28;20139;-61
2022/11/03 07:19:17;;;;;;;21.15;4.80;;;;;;;11.03;83.20;100722.34;5093110;28;20056;-62
2022/11/03 07:21:47;;;;;;;20.80;5.10;;;;;;;11.06;82.70;100724.72;5092756;28;20039;-61
2022/11/03 07:24:21;;;;;;;32.85;5.53;;;;;;;11.09;82.47;100721.72;5093409;28;20507;-61
2022/11/03 07:26:55;;;;;;;25.42;4.32;;;;;;;11.19;82.58;100716.31;5093577;28;20489;-61
2022/11/03 07:29:26;;;;;;;25.45;4.75;;;;;;;11.26;82.35;100716.50;5093373;28;20052;-62
2022/11/03 07:31:55;;;;;;;20.02;5.50;;;;;;;11.32;81.93;100705.25;5092000;28;20123;-61
2022/11/03 07:34:28;;;;;;;26.98;6.03;;;;;;;11.42;81.16;100708.59;5092789;28;20044;-61
2022/11/03 07:36:56;;;;;;;26.15;5.38;;;;;;;11.53;80.86;100704.81;5089086;28;20028;-61
2022/11/03 07:39:34;;;;;;;21.58;5.50;;;;;;;11.65;80.24;100706.19;5049697;28;20044;-61
2022/11/03 07:42:12;;;;;;;20.00;4.93;;;;;;;11.70;80.15;100697.75;5090284;28;20093;-61
2022/11/03 07:44:39;;;;;;;18.95;5.05;;;;;;;11.77;79.55;100703.22;5086821;28;20499;-62
2022/11/03 07:47:12;;;;;;;21.80;5.30;;;;;;;11.87;79.45;100704.72;5092021;28;20036;-61
2022/11/03 07:49:39;;;;;;;23.92;5.68;;;;;;;11.91;79.26;100702.63;5092985;28;20131;-62
2022/11/03 07:52:12;;;;;;;21.23;5.38;;;;;;;11.97;78.87;100706.44;5091058;28;20085;-57
2022/11/03 07:54:39;;;;;;;25.15;5.40;;;;;;;11.92;78.91;100693.66;5090870;28;20047;-55
2022/11/03 07:57:25;;;;;;;25.48;5.20;;;;;;;12.05;78.38;100686.03;5092890;28;20051;-54
2022/11/03 07:59:57;;;;;;;17.92;5.25;;;;;;;11.99;78.30;100685.84;5088549;28;20131;-54
2022/11/03 08:02:36;;;;;;;30.02;5.75;;;;;;;12.01;78.15;100686.53;5086460;28;20052;-54
2022/11/03 08:05:03;;;;;;;24.80;6.25;;;;;;;11.94;78.41;100682.88;5084268;28;20056;-60
2022/11/03 08:07:30;;;;;;;23.88;5.70;;;;;;;11.97;78.39;100679.84;5092230;28;20048;-61
2022/11/03 08:09:57;;;;;;;19.45;5.75;;;;;;;11.89;78.71;100670.84;5085905;28;20048;-61
2022/11/03 08:12:24;;;;;;;25.13;5.43;;;;;;;11.81;78.94;100678.81;5091674;28;20044;-61
2022/11/03 08:14:51;;;;;;;23.70;4.97;;;;;;;11.85;79.08;100677.50;5084574;28;20135;-60
2022/11/03 08:17:18;;;;;;;30.52;5.10;;;;;;;11.94;79.25;100666.91;5090343;28;20067;-61
2022/11/03 08:19:45;;;;;;;18.23;4.45;;;;;;;11.96;79.28;100663.09;5081179;28;20273;-60
2022/11/03 08:22:12;;;;;;;22.58;5.35;;;;;;;12.08;78.43;100671.59;5088760;28;20086;-61
2022/11/03 08:24:38;;;;;;;18.17;5.00;;;;;;;11.96;78.92;100665.75;5089556;28;20082;-62
2022/11/03 08:27:05;;;;;;;21.70;5.35;;;;;;;11.94;78.97;100658.94;5095286;28;20778;-60
2022/11/03 08:29:32;;;;;;;33.70;6.53;;;;;;;11.85;79.63;100655.41;5079217;28;20497;-60
2022/11/03 08:31:58;;;;;;;21.98;5.07;;;;;;;11.94;79.58;100656.28;5087998;28;20040;-60
2022/11/03 08:34:25;;;;;;;20.48;5.38;;;;;;;12.02;79.14;100649.13;5082740;28;20094;-60
2022/11/03 08:36:52;;;;;;;24.33;5.85;;;;;;;12.04;78.76;100654.28;5090353;28;20547;-60
2022/11/03 08:39:18;;;;;;;26.05;5.47;;;;;;;12.08;78.69;100648.47;5049658;28;20036;-60
2022/11/03 08:41:45;;;;;;;19.42;5.50;;;;;;;12.11;78.85;100649.97;5084421;28;20131;-60
2022/11/03 08:44:12;;;;;;;20.58;4.97;;;;;;;12.23;78.38;100643.31;5075835;28;20512;-61
2022/11/03 08:46:39;;;;;;;23.77;4.85;;;;;;;12.20;78.79;100635.66;5088936;28;20101;-60
2022/11/03 08:49:05;;;;;;;22.13;4.85;;;;;;;12.19;79.09;100618.06;5086988;28;20043;-60
2022/11/03 08:51:32;;;;;;;20.67;5.68;;;;;;;12.18;79.23;100604.94;5090809;28;20097;-60
2022/11/03 08:53:59;;;;;;;24.15;5.20;;;;;;;12.28;79.02;100609.06;5092098;28;20402;-60
2022/11/03 08:56:25;;;;;;;23.27;5.15;;;;;;;12.31;78.82;100594.59;5087761;28;20044;-60
2022/11/03 08:58:52;;;;;;;15.50;4.05;;;;;;;12.29;78.58;100585.94;5094373;28;20478;-61
2022/11/03 09:01:19;;;;;;;25.90;5.53;;;;;;;12.24;78.81;100602.44;5087339;28;20044;-62
2022/11/03 09:03:45;;;;;;;20.25;5.03;;;;;;;12.35;78.63;100589.75;5088537;28;20083;-61
2022/11/03 09:06:12;;;;;;;25.05;5.10;;;;;;;12.43;78.43;100587.91;5073310;28;20074;-62
2022/11/03 09:08:39;;;;;;;22.70;4.93;;;;;;;12.49;78.37;100589.88;5081934;28;20136;-61
2022/11/03 09:11:25;;;;;;;26.40;4.57;;;;;;;12.63;78.00;100585.72;5087719;28;20039;-61
2022/11/03 09:13:53;;;;;;;21.45;4.68;;;;;;;12.78;77.54;100583.16;5074154;28;20102;-62
2022/11/03 09:16:20;;;;;;;20.15;4.75;;;;;;;12.79;77.05;100582.16;5085720;28;20391;-62
2022/11/03 09:18:46;;;;;;;17.98;4.65;;;;;;;12.85;76.89;100573.47;5087477;28;20067;-61
2022/11/03 09:21:13;;;;;;;18.98;4.20;;;;;;;12.89;76.75;100565.97;5090741;28;20062;-61
2022/11/03 09:23:40;;;;;;;20.65;4.63;;;;;;;12.82;76.83;100557.03;5086252;28;20044;-61
2022/11/03 09:26:07;;;;;;;22.60;4.55;;;;;;;12.82;76.97;100541.06;5108072;28;20044;-62
2022/11/03 09:28:33;;;;;;;28.25;4.95;;;;;;;12.83;76.83;100530.22;5075213;28;20719;-62
2022/11/03 09:31:00;;;;;;;20.05;4.55;;;;;;;12.97;76.56;100527.81;5088669;28;20044;-62
2022/11/03 09:33:27;;;;;;;19.88;4.45;;;;;;;13.03;76.05;100530.63;5088849;28;20032;-62
2022/11/03 09:35:54;;;;;;;21.92;4.18;;;;;;;13.10;76.26;100516.59;5094446;28;20127;-62
2022/11/03 09:38:20;;;;;;;23.38;4.28;;;;;;;13.18;75.41;100508.56;5090464;28;20566;-55
2022/11/03 09:40:47;;;;;;;20.80;5.40;;;;;;;13.21;75.13;100506.38;5051257;28;20036;-62
2022/11/03 09:43:19;;;;;;;;;;;;;;;13.27;74.98;100501.38;5093886;28;20066;-61
2022/11/03 09:45:46;;;;;;;15.63;3.95;;;;;;;13.29;75.44;100486.84;5089944;28;19931;-61
2022/11/03 09:48:14;;;;;;;22.27;4.43;;;;;;;13.34;74.77;100475.69;5088568;28;20055;-61
2022/11/03 09:50:40;;;;;;;15.07;3.90;;;;;;;13.41;74.52;100479.31;5087120;28;20040;-61
2022/11/03 09:53:11;;;;;;;16.42;3.55;;;;;;;13.49;73.89;100471.22;5088730;28;20054;-61
2022/11/03 09:55:38;;;;;;;20.90;4.10;;;;;;;13.50;73.83;100456.91;5086854;28;20028;-61
2022/11/03 09:58:14;;;;;;;20.50;3.63;;;;;;;13.61;73.31;100461.81;5084015;28;20040;-61
2022/11/03 10:00:41;;;;;;;26.38;4.40;;;;;;;13.62;72.90;100454.63;5091255;28;20056;-61
2022/11/03 10:03:11;;;;;;;18.90;3.80;;;;;;;13.68;72.33;100448.59;5088070;28;20043;-61
2022/11/03 10:05:38;;;;;;;20.23;4.40;;;;;;;13.71;72.04;100442.88;5073570;28;20494;-62
2022/11/03 10:08:17;;;;;;;19.45;3.72;;;;;;;13.73;71.56;100430.19;5086392;28;20545;-61
2022/11/03 10:10:44;;;;;;;23.63;5.10;;;;;;;13.81;71.35;100429.31;5093724;28;20051;-62
2022/11/03 10:13:21;;;;;;;19.92;3.85;;;;;;;13.63;71.81;100422.47;5085450;28;20081;-61
2022/11/03 10:15:47;;;;;;;17.02;3.38;;;;;;;13.63;70.49;100418.97;5091361;28;20047;-61
2022/11/03 10:18:14;;;;;;;19.25;3.85;;;;;;;13.72;70.36;100433.06;5090568;28;20041;-61
2022/11/03 10:20:42;;;;;;;16.10;3.92;;;;;;;13.76;69.78;100429.00;5089487;28;20396;-62
2022/11/03 10:23:08;;;;;;;21.33;3.80;;;;;;;13.85;69.38;100425.25;5089944;28;20055;-62
2022/11/03 10:25:39;;;;;;;15.05;3.97;;;;;;;13.83;69.29;100425.44;5070494;28;20072;-62
2022/11/03 10:28:23;;;;;;;20.08;3.22;;;;;;;13.90;69.24;100427.34;5087657;28;20048;-61
2022/11/03 10:30:55;;;;;;;18.83;3.50;;;;;;;13.93;69.63;100429.66;5077484;28;20051;-61
2022/11/03 10:33:39;;;;;;;15.05;3.55;;;;;;;14.02;68.86;100410.75;5093021;28;20132;-61
2022/11/03 10:38:51;;;;;;;14.82;3.75;;;;;;;14.18;68.63;100396.34;5106812;27;20408;-61
2022/11/03 10:41:20;;;;;;;17.77;4.30;;;;;;;14.18;68.95;100392.88;5068822;28;20043;-61
2022/11/03 10:44:12;;;;;;;18.88;4.18;;;;;;;14.26;67.70;100374.09;5091927;28;20045;-61
2022/11/03 10:46:40;;;;;;;17.17;4.03;;;;;;;14.20;66.67;100386.31;5083841;28;20483;-62
2022/11/03 10:49:23;;;;;;;17.42;4.53;;;;;;;14.19;67.53;100362.53;5087647;28;20066;-63
2022/11/03 10:51:52;;;;;;;22.75;4.70;;;;;;;14.14;66.88;100362.25;5083936;28;20040;-61
2022/11/03 10:54:22;;;;;;;16.83;4.38;;;;;;;14.15;67.39;100350.56;5091172;28;20154;-61
2022/11/03 10:56:51;;;;;;;17.13;4.68;;;;;;;14.17;67.09;100335.19;5084113;28;20037;-61
2022/11/03 10:59:23;;;;;;;20.25;4.95;;;;;;;14.20;67.58;100324.97;5087311;28;20451;-61
2022/11/03 11:01:50;;;;;;;16.30;4.40;;;;;;;14.28;66.32;100324.03;5081199;28;20093;-61
2022/11/03 11:04:18;;;;;;;22.23;4.38;;;;;;;14.39;66.59;100310.19;5098636;28;20086;-62
2022/11/03 11:06:45;;;;;;;16.27;4.35;;;;;;;14.28;66.05;100318.72;5102354;28;20173;-61
2022/11/03 11:09:22;;;;;;;16.83;5.07;;;;;;;14.39;65.72;100318.22;5099461;28;20044;-62
2022/11/03 11:12:24;;;;;;;14.25;4.20;;;;;;;14.66;65.02;100323.84;5104545;28;20050;-63
2022/11/03 11:20:27;;;;;;;15.65;3.75;;;;;;;15.02;63.30;100314.06;5110298;27;20350;-60
2022/11/03 11:22:54;;;;;;;12.45;3.70;;;;;;;14.96;63.13;100310.34;5100222;28;20051;-61
2022/11/03 11:26:00;;;;;;;15.65;3.85;;;;;;;15.03;63.36;100307.72;5091785;28;20037;-61
2022/11/03 11:28:27;;;;;;;12.35;3.38;;;;;;;14.77;64.02;100315.31;5085355;28;20048;-61
2022/11/03 11:30:55;;;;;;;16.33;3.35;;;;;;;14.87;64.00;100304.31;5090702;28;20535;-60
2022/11/03 11:33:24;;;;;;;18.42;3.65;;;;;;;14.93;64.29;100319.53;5081205;28;20407;-60
2022/11/03 11:38:51;;;;;;;25.42;3.80;;;;;;;14.80;64.85;100319.44;5105797;27;20741;-62
2022/11/03 11:41:19;;;;;;;14.93;3.17;;;;;;;14.84;65.46;100310.03;5073286;28;20127;-61
2022/11/03 11:43:46;;;;;;;15.10;3.30;;;;;;;14.53;65.49;100295.13;5086905;28;20298;-61
2022/11/03 11:46:38;;;;;;;16.15;3.85;;;;;;;14.47;66.23;100287.09;5108086;28;20055;-61
2022/11/03 11:51:45;;;;;;;19.33;3.55;;;;;;;14.35;66.37;100241.38;5121713;27;20471;-60
2022/11/03 11:54:18;;;;;;;12.43;3.20;;;;;;;14.35;66.78;100250.25;5111683;28;20059;-62
2022/11/03 11:56:47;;;;;;;14.10;3.08;;;;;;;14.32;66.98;100244.47;5088738;28;20031;-61
2022/11/03 11:59:18;;;;;;;17.75;3.45;;;;;;;14.25;67.24;100228.38;5098371;28;20047;-61
2022/11/03 12:01:52;;;;;;;15.25;3.72;;;;;;;14.16;67.33;100237.53;5067421;28;20747;-60
2022/11/03 12:04:22;;;;;;;13.13;3.05;;;;;;;14.08;67.82;100225.13;5069652;28;20045;-61
2022/11/03 12:06:49;;;;;;;12.07;3.10;;;;;;;13.99;68.31;100210.28;5057373;28;20036;-61